Погода Ла-Пас-Сентрона неделю

Леон, Никарагуа

01 - 07 марта
  • 01марта
    Сегодня
    +24°
    +37°
    Ясно и безоблачно
    ВремяПогодаТемператураВлажностьДавлениеВетер, м/сВероятность осадков
    00:00Ясно и безоблачно+26°C67 %755 мм4.5 м/с2 %
    03:00Ясно и безоблачно+25°C72 %754 мм3.3 м/с4 %
    06:00Ясно и безоблачно+23°C78 %755 мм3.4 м/с4 %
    09:00Ясно и безоблачно+29°C58 %756 мм5.7 м/с3 %
    12:00Ясно и безоблачно+33°C41 %754 мм7.2 м/с3 %
    15:00Ясно и безоблачно+37°C33 %752 мм6.7 м/с2 %
    18:00Ясно и безоблачно+32°C47 %752 мм6.5 м/с2 %
    21:00Ясно и безоблачно+28°C64 %754 мм7.1 м/с2 %
  • 02марта
    Суббота
    +23°
    +37°
    Ясно и безоблачно
    ВремяПогодаТемператураВлажностьДавлениеВетер, м/сВероятность осадков
    00:00Ясно и безоблачно+26°C72 %754 мм6.1 м/с2 %
    03:00Ясно и безоблачно+25°C76 %754 мм4.7 м/с3 %
    06:00Ясно и безоблачно+24°C79 %755 мм3.6 м/с5 %
    09:00Ясно и безоблачно+29°C59 %756 мм6.2 м/с5 %
    12:00Ясно и безоблачно+32°C45 %755 мм6.1 м/с5 %
    15:00Ясно и безоблачно+36°C28 %752 мм5.7 м/с2 %
    18:00Ясно и безоблачно+34°C37 %752 мм6.0 м/с2 %
    21:00Ясно и безоблачно+29°C48 %754 мм5.3 м/с2 %
  • 03марта
    Воскресенье
    +23°
    +37°
    Ясно и безоблачно
    ВремяПогодаТемператураВлажностьДавлениеВетер, м/сВероятность осадков
    00:00Ясно и безоблачно+26°C56 %754 мм6.0 м/с2 %
    03:00Ясно и безоблачно+25°C71 %754 мм4.2 м/с2 %
    06:00Ясно и безоблачно+23°C77 %755 мм3.1 м/с1 %
    09:00Ясно и безоблачно+28°C56 %756 мм3.9 м/с2 %
    12:00Ясно и безоблачно+33°C39 %754 мм4.8 м/с2 %
    15:00Ясно и безоблачно+37°C33 %751 мм3.8 м/с2 %
    18:00Ясно и безоблачно+32°C53 %751 мм1.7 м/с2 %
    21:00Ясно и безоблачно+28°C66 %753 мм1.8 м/с2 %
  • 04марта
    Понедельник
    +23°
    +36°
    Ясно и безоблачно
    ВремяПогодаТемператураВлажностьДавлениеВетер, м/сВероятность осадков
    00:00Ясно и безоблачно+27°C67 %754 мм4.9 м/с2 %
    03:00Ясно и безоблачно+25°C77 %753 мм4.9 м/с2 %
    06:00Ясно и безоблачно+23°C83 %754 мм4.7 м/с2 %
    09:00Ясно и безоблачно+28°C59 %755 мм5.6 м/с2 %
    12:00Ясно и безоблачно+33°C39 %753 мм5.7 м/с2 %
    15:00Ясно и безоблачно+36°C31 %750 мм5.2 м/с2 %
    18:00Ясно и безоблачно+33°C43 %750 мм3.7 м/с2 %
    21:00Ясно и безоблачно+28°C57 %752 мм3.3 м/с2 %
  • 05марта
    Вторник
    +23°
    +37°
    Ясно и безоблачно
    ВремяПогодаТемператураВлажностьДавлениеВетер, м/сВероятность осадков
    00:00Ясно и безоблачно+27°C60 %753 мм4.5 м/с2 %
    03:00Ясно и безоблачно+26°C72 %752 мм3.7 м/с2 %
    06:00Ясно и безоблачно+24°C80 %753 мм3.8 м/с2 %
    09:00Ясно и безоблачно+28°C60 %754 мм4.7 м/с2 %
    12:00Ясно и безоблачно+33°C40 %752 мм4.9 м/с2 %
    15:00Ясно и безоблачно+36°C33 %749 мм3.9 м/с2 %
    18:00Практически безоблачно+33°C52 %750 мм1.1 м/с2 %
    21:00Небольшая облачность+27°C70 %752 мм2.2 м/с2 %
Мы используем cookies
Соглашаюсь